Raccoon Point — WYZ3965 — position and weather

sailwx.info

Track history (hours):
 
Tides and Currents Weather Stations Pressure Air Temp Water Temp Dewpoint Dewpoint Depression Visibility Wind Speed Wind Dir Waves Ship Positions

Raccoon Point

Owner: Alpha VesselCo, LLC, Suffolk, VA. More information available from US FCC via Universal Licensing System and Coast Guard Vessel Documentation Center.

Last reported at 2018-May-25 14:00 UTC. Time now 2018-May-25 14:27 UTC.
Position N 29°47' W 092°09'.

Length 49 m; draft 3.5 m.

Type: Fishing. MMSI: 367108920.

Date/timePositionNaut miles runAvg speedWind from/ knotsBaromVisibWave heightAir tempDewpointWater temp
2018-May-25 14:00N 29°47' W 092°09'2 4.7
2018-May-25 13:30N 29°49' W 092°08'0 0.0
2018-May-25 13:00N 29°49' W 092°08'0 0.0
2018-May-25 12:30N 29°49' W 092°08'0 0.0
2018-May-25 12:00N 29°49' W 092°08'0 0.0
2018-May-25 11:30N 29°49' W 092°08'0 0.0
2018-May-25 10:59N 29°49' W 092°08'0 0.0
2018-May-25 10:30N 29°49' W 092°08'0 0.0
2018-May-25 10:00N 29°49' W 092°08'0 0.0
2018-May-25 09:30N 29°49' W 092°08'0 0.0
2018-May-25 09:00N 29°49' W 092°08'0 0.0
2018-May-25 08:30N 29°49' W 092°08'0 0.0
2018-May-25 08:00N 29°49' W 092°08'0 0.0
2018-May-25 07:30N 29°49' W 092°08'0 0.0
2018-May-25 07:00N 29°49' W 092°08'0 0.0
2018-May-25 06:30N 29°49' W 092°08'0 0.0
2018-May-25 06:00N 29°49' W 092°08'0 0.0
2018-May-25 05:30N 29°49' W 092°08'0 0.0
2018-May-25 05:00N 29°49' W 092°08'0 0.0
2018-May-25 04:30N 29°49' W 092°08'0 0.0
2018-May-25 04:00N 29°49' W 092°08'0 0.0
2018-May-25 03:30N 29°49' W 092°08'0 0.1
2018-May-25 03:00N 29°49' W 092°08'0 0.0
2018-May-25 02:30N 29°49' W 092°08'0 0.0
2018-May-25 02:00N 29°49' W 092°08'0 0.0
2018-May-25 01:30N 29°49' W 092°08'0 0.0
2018-May-25 01:00N 29°49' W 092°08'0 0.0
2018-May-25 00:30N 29°49' W 092°08'0 0.0
2018-May-25 00:00N 29°49' W 092°08'1 2.4
2018-May-24 23:30N 29°48' W 092°08'3 5.3
2018-May-24 23:00N 29°46' W 092°10'5 9.2
2018-May-24 22:30N 29°44' W 092°15'1 0.1
2018-May-24 14:54N 29°42' W 092°15'3 8.1
2018-May-24 14:31N 29°45' W 092°13'3 6.4
2018-May-24 14:00N 29°47' W 092°10'2 5.0
2018-May-24 13:30N 29°49' W 092°08'1 0.1
2018-May-24 09:00N 29°49' W 092°08'0 0.0
2018-May-24 08:31N 29°49' W 092°08'0 0.0
2018-May-24 08:00N 29°49' W 092°08'0 0.0
2018-May-24 07:29N 29°49' W 092°08'0 0.0
2018-May-24 06:57N 29°49' W 092°08'0 0.0
2018-May-24 06:30N 29°49' W 092°08'0 0.0
2018-May-24 06:01N 29°49' W 092°08'0 0.0
2018-May-24 05:31N 29°49' W 092°08'0 0.0
2018-May-24 05:01N 29°49' W 092°08'0 0.0
2018-May-24 04:20N 29°49' W 092°08'0 0.0
2018-May-24 04:00N 29°49' W 092°08'0 0.0
2018-May-24 03:30N 29°49' W 092°08'0 0.0
2018-May-24 02:59N 29°49' W 092°08'0 0.0
2018-May-24 02:30N 29°49' W 092°08'0 0.0
2018-May-24 02:00N 29°49' W 092°08'0 0.0
2018-May-24 01:30N 29°49' W 092°08'0 0.0
2018-May-24 01:00N 29°49' W 092°08'0 0.0
2018-May-24 00:30N 29°49' W 092°08'0 0.0
2018-May-24 00:00N 29°49' W 092°08'0 0.0
2018-May-23 23:30N 29°49' W 092°08'0 0.0
2018-May-23 23:00N 29°49' W 092°08'0 0.0
2018-May-23 22:30N 29°49' W 092°08'0 0.0
2018-May-23 22:00N 29°49' W 092°08'0 0.0
2018-May-23 21:30N 29°49' W 092°08'0 0.0
2018-May-23 21:00N 29°49' W 092°08'0 0.0
2018-May-23 20:29N 29°49' W 092°08'0 0.0
2018-May-23 19:59N 29°49' W 092°08'0 0.0
2018-May-23 19:29N 29°49' W 092°08'0 0.0
2018-May-23 19:00N 29°49' W 092°08'0 0.0
2018-May-23 18:30N 29°49' W 092°08'0 0.0
2018-May-23 18:00N 29°49' W 092°08'0 0.0
2018-May-23 17:30N 29°49' W 092°08'0 0.0
2018-May-23 17:00N 29°49' W 092°08'0 0.0
2018-May-23 16:30N 29°49' W 092°08'0 0.0
2018-May-23 15:51N 29°49' W 092°08'0 0.0
2018-May-23 15:30N 29°49' W 092°08'0 0.0
2018-May-23 15:00N 29°49' W 092°08'0 0.0
2018-May-23 14:30N 29°49' W 092°08'0 0.0
2018-May-23 14:00N 29°49' W 092°08'0 0.0
2018-May-23 13:30N 29°49' W 092°08'0 0.0
2018-May-23 13:00N 29°49' W 092°08'0 0.0
2018-May-23 12:30N 29°49' W 092°08'0 0.0
2018-May-23 12:00N 29°49' W 092°08'0 0.0
2018-May-23 11:30N 29°49' W 092°08'0 0.0
2018-May-23 10:59N 29°49' W 092°08'0 0.0
2018-May-23 10:31N 29°49' W 092°08'0 0.0
2018-May-23 10:00N 29°49' W 092°08'0 0.0
2018-May-23 09:30N 29°49' W 092°08'0 0.0
2018-May-23 09:00N 29°49' W 092°08'0 0.0
2018-May-23 08:28N 29°49' W 092°08'0 0.0
2018-May-23 07:52N 29°49' W 092°08'0 0.0
2018-May-23 07:30N 29°49' W 092°08'0 0.0
2018-May-23 06:58N 29°49' W 092°08'0 0.0
2018-May-23 06:30N 29°49' W 092°08'0 0.0
2018-May-23 06:00N 29°49' W 092°08'0 0.0
2018-May-23 05:30N 29°49' W 092°08'0 0.0
2018-May-23 05:00N 29°49' W 092°08'0 0.0
2018-May-23 04:31N 29°49' W 092°08'0 0.0
2018-May-23 04:00N 29°49' W 092°08'0 0.0
2018-May-23 03:30N 29°49' W 092°08'0 0.0
2018-May-23 03:00N 29°49' W 092°08'0 0.0
2018-May-23 02:30N 29°49' W 092°08'0 0.0
2018-May-23 02:00N 29°49' W 092°08'0 0.0
2018-May-23 01:30N 29°49' W 092°08'0 0.0
2018-May-23 01:00N 29°49' W 092°08'0 0.0
2018-May-23 00:30N 29°49' W 092°08'0 0.0
2018-May-23 00:00N 29°49' W 092°08'0 0.0
2018-May-22 23:31N 29°49' W 092°08'0 0.0
2018-May-22 23:00N 29°49' W 092°08'0 0.0
2018-May-22 22:30N 29°49' W 092°08'0 0.0
2018-May-22 22:00N 29°49' W 092°08'0 0.0
2018-May-22 21:30N 29°49' W 092°08'0 0.0
2018-May-22 21:00N 29°49' W 092°08'0 0.0
2018-May-22 20:30N 29°49' W 092°08'0 0.0
2018-May-22 20:00N 29°49' W 092°08'0 0.0
2018-May-22 19:29N 29°49' W 092°08'0 0.0
2018-May-22 19:00N 29°49' W 092°08'0 0.0
2018-May-22 18:30N 29°49' W 092°08'0 0.0
2018-May-22 18:00N 29°49' W 092°08'0 0.0
2018-May-22 17:30N 29°49' W 092°08'  
2018-May-18 09:53N 29°49' W 092°08'0 0.0
2018-May-18 08:01N 29°49' W 092°08'0 0.4
2018-May-18 08:00N 29°49' W 092°08'0 0.0
2018-May-18 06:57N 29°49' W 092°08'0 0.0
2018-May-18 06:27N 29°49' W 092°08'0 0.0
2018-May-17 08:11N 29°49' W 092°08'0 0.0
2018-May-17 07:45N 29°49' W 092°08'0 0.0
2018-May-17 07:17N 29°49' W 092°08'0 0.0
2018-May-17 02:29N 29°49' W 092°08'0 0.0
2018-May-16 09:59N 29°49' W 092°08'  
Track history (hours):
 
Tides and Currents Weather Stations Pressure Air Temp Water Temp Dewpoint Dewpoint Depression Visibility Wind Speed Wind Dir Waves Ship Positions

Raccoon Point

Owner: Alpha VesselCo, LLC, Suffolk, VA. More information available from US FCC via Universal Licensing System and Coast Guard Vessel Documentation Center.

Last reported at 2018-May-25 14:00 UTC. Time now 2018-May-25 14:27 UTC.
Position N 29°47' W 092°09'.

Length 49 m; draft 3.5 m.

Type: Fishing. MMSI: 367108920.

Date/timePositionNaut miles runAvg speedWind from/ knotsBaromVisibWave heightAir tempDewpointWater temp
2018-May-25 14:00N 29°47' W 092°09'2 4.7
2018-May-25 13:30N 29°49' W 092°08'0 0.0
2018-May-25 13:00N 29°49' W 092°08'0 0.0
2018-May-25 12:30N 29°49' W 092°08'0 0.0
2018-May-25 12:00N 29°49' W 092°08'0 0.0
2018-May-25 11:30N 29°49' W 092°08'0 0.0
2018-May-25 10:59N 29°49' W 092°08'0 0.0
2018-May-25 10:30N 29°49' W 092°08'0 0.0
2018-May-25 10:00N 29°49' W 092°08'0 0.0
2018-May-25 09:30N 29°49' W 092°08'0 0.0
2018-May-25 09:00N 29°49' W 092°08'0 0.0
2018-May-25 08:30N 29°49' W 092°08'0 0.0
2018-May-25 08:00N 29°49' W 092°08'0 0.0
2018-May-25 07:30N 29°49' W 092°08'0 0.0
2018-May-25 07:00N 29°49' W 092°08'0 0.0
2018-May-25 06:30N 29°49' W 092°08'0 0.0
2018-May-25 06:00N 29°49' W 092°08'0 0.0
2018-May-25 05:30N 29°49' W 092°08'0 0.0
2018-May-25 05:00N 29°49' W 092°08'0 0.0
2018-May-25 04:30N 29°49' W 092°08'0 0.0
2018-May-25 04:00N 29°49' W 092°08'0 0.0
2018-May-25 03:30N 29°49' W 092°08'0 0.1
2018-May-25 03:00N 29°49' W 092°08'0 0.0
2018-May-25 02:30N 29°49' W 092°08'0 0.0
2018-May-25 02:00N 29°49' W 092°08'0 0.0
2018-May-25 01:30N 29°49' W 092°08'0 0.0
2018-May-25 01:00N 29°49' W 092°08'0 0.0
2018-May-25 00:30N 29°49' W 092°08'0 0.0
2018-May-25 00:00N 29°49' W 092°08'1 2.4
2018-May-24 23:30N 29°48' W 092°08'3 5.3
2018-May-24 23:00N 29°46' W 092°10'5 9.2
2018-May-24 22:30N 29°44' W 092°15'1 0.1
2018-May-24 14:54N 29°42' W 092°15'3 8.1
2018-May-24 14:31N 29°45' W 092°13'3 6.4
2018-May-24 14:00N 29°47' W 092°10'2 5.0
2018-May-24 13:30N 29°49' W 092°08'1 0.1
2018-May-24 09:00N 29°49' W 092°08'0 0.0
2018-May-24 08:31N 29°49' W 092°08'0 0.0
2018-May-24 08:00N 29°49' W 092°08'0 0.0
2018-May-24 07:29N 29°49' W 092°08'0 0.0
2018-May-24 06:57N 29°49' W 092°08'0 0.0
2018-May-24 06:30N 29°49' W 092°08'0 0.0
2018-May-24 06:01N 29°49' W 092°08'0 0.0
2018-May-24 05:31N 29°49' W 092°08'0 0.0
2018-May-24 05:01N 29°49' W 092°08'0 0.0
2018-May-24 04:20N 29°49' W 092°08'0 0.0
2018-May-24 04:00N 29°49' W 092°08'0 0.0
2018-May-24 03:30N 29°49' W 092°08'0 0.0
2018-May-24 02:59N 29°49' W 092°08'0 0.0
2018-May-24 02:30N 29°49' W 092°08'0 0.0
2018-May-24 02:00N 29°49' W 092°08'0 0.0
2018-May-24 01:30N 29°49' W 092°08'0 0.0
2018-May-24 01:00N 29°49' W 092°08'0 0.0
2018-May-24 00:30N 29°49' W 092°08'0 0.0
2018-May-24 00:00N 29°49' W 092°08'0 0.0
2018-May-23 23:30N 29°49' W 092°08'0 0.0
2018-May-23 23:00N 29°49' W 092°08'0 0.0
2018-May-23 22:30N 29°49' W 092°08'0 0.0
2018-May-23 22:00N 29°49' W 092°08'0 0.0
2018-May-23 21:30N 29°49' W 092°08'0 0.0
2018-May-23 21:00N 29°49' W 092°08'0 0.0
2018-May-23 20:29N 29°49' W 092°08'0 0.0
2018-May-23 19:59N 29°49' W 092°08'0 0.0
2018-May-23 19:29N 29°49' W 092°08'0 0.0
2018-May-23 19:00N 29°49' W 092°08'0 0.0
2018-May-23 18:30N 29°49' W 092°08'0 0.0
2018-May-23 18:00N 29°49' W 092°08'0 0.0
2018-May-23 17:30N 29°49' W 092°08'0 0.0
2018-May-23 17:00N 29°49' W 092°08'0 0.0
2018-May-23 16:30N 29°49' W 092°08'0 0.0
2018-May-23 15:51N 29°49' W 092°08'0 0.0
2018-May-23 15:30N 29°49' W 092°08'0 0.0
2018-May-23 15:00N 29°49' W 092°08'0 0.0
2018-May-23 14:30N 29°49' W 092°08'0 0.0
2018-May-23 14:00N 29°49' W 092°08'0 0.0
2018-May-23 13:30N 29°49' W 092°08'0 0.0
2018-May-23 13:00N 29°49' W 092°08'0 0.0
2018-May-23 12:30N 29°49' W 092°08'0 0.0
2018-May-23 12:00N 29°49' W 092°08'0 0.0
2018-May-23 11:30N 29°49' W 092°08'0 0.0
2018-May-23 10:59N 29°49' W 092°08'0 0.0
2018-May-23 10:31N 29°49' W 092°08'0 0.0
2018-May-23 10:00N 29°49' W 092°08'0 0.0
2018-May-23 09:30N 29°49' W 092°08'0 0.0
2018-May-23 09:00N 29°49' W 092°08'0 0.0
2018-May-23 08:28N 29°49' W 092°08'0 0.0
2018-May-23 07:52N 29°49' W 092°08'0 0.0
2018-May-23 07:30N 29°49' W 092°08'0 0.0
2018-May-23 06:58N 29°49' W 092°08'0 0.0
2018-May-23 06:30N 29°49' W 092°08'0 0.0
2018-May-23 06:00N 29°49' W 092°08'0 0.0
2018-May-23 05:30N 29°49' W 092°08'0 0.0
2018-May-23 05:00N 29°49' W 092°08'0 0.0
2018-May-23 04:31N 29°49' W 092°08'0 0.0
2018-May-23 04:00N 29°49' W 092°08'0 0.0
2018-May-23 03:30N 29°49' W 092°08'0 0.0
2018-May-23 03:00N 29°49' W 092°08'0 0.0
2018-May-23 02:30N 29°49' W 092°08'0 0.0
2018-May-23 02:00N 29°49' W 092°08'0 0.0
2018-May-23 01:30N 29°49' W 092°08'0 0.0
2018-May-23 01:00N 29°49' W 092°08'0 0.0
2018-May-23 00:30N 29°49' W 092°08'0 0.0
2018-May-23 00:00N 29°49' W 092°08'0 0.0
2018-May-22 23:31N 29°49' W 092°08'0 0.0
2018-May-22 23:00N 29°49' W 092°08'0 0.0
2018-May-22 22:30N 29°49' W 092°08'0 0.0
2018-May-22 22:00N 29°49' W 092°08'0 0.0
2018-May-22 21:30N 29°49' W 092°08'0 0.0
2018-May-22 21:00N 29°49' W 092°08'0 0.0
2018-May-22 20:30N 29°49' W 092°08'0 0.0
2018-May-22 20:00N 29°49' W 092°08'0 0.0
2018-May-22 19:29N 29°49' W 092°08'0 0.0
2018-May-22 19:00N 29°49' W 092°08'0 0.0
2018-May-22 18:30N 29°49' W 092°08'0 0.0
2018-May-22 18:00N 29°49' W 092°08'0 0.0
2018-May-22 17:30N 29°49' W 092°08'  
2018-May-18 09:53N 29°49' W 092°08'0 0.0
2018-May-18 08:01N 29°49' W 092°08'0 0.4
2018-May-18 08:00N 29°49' W 092°08'0 0.0
2018-May-18 06:57N 29°49' W 092°08'0 0.0
2018-May-18 06:27N 29°49' W 092°08'0 0.0
2018-May-17 08:11N 29°49' W 092°08'0 0.0
2018-May-17 07:45N 29°49' W 092°08'0 0.0
2018-May-17 07:17N 29°49' W 092°08'0 0.0
2018-May-17 02:29N 29°49' W 092°08'0 0.0
2018-May-16 09:59N 29°49' W 092°08'  

Dump ship's entire track history